createdAt,value
2023-12-09T00:03:45.972Z,3.48
2023-12-09T00:07:50.342Z,3.48
2023-12-09T00:11:56.753Z,3.54
2023-12-09T00:16:01.367Z,3.54
2023-12-09T00:20:07.164Z,3.56
2023-12-09T00:24:11.995Z,3.55
2023-12-09T00:28:18.396Z,3.60
2023-12-09T00:32:23.680Z,3.60
2023-12-09T00:36:28.761Z,3.60
2023-12-09T00:40:34.890Z,3.60
2023-12-09T00:44:41.334Z,3.62
2023-12-09T00:48:46.383Z,3.59
2023-12-09T00:52:50.899Z,3.59
2023-12-09T00:56:56.815Z,3.59
2023-12-09T01:01:02.961Z,3.59
2023-12-09T01:05:08.858Z,3.59
2023-12-09T01:09:13.789Z,3.58
2023-12-09T01:13:18.426Z,3.59
2023-12-09T01:17:24.965Z,3.58
2023-12-09T01:21:29.415Z,3.56
2023-12-09T01:25:33.709Z,3.45
2023-12-09T01:29:40.612Z,3.57
2023-12-09T01:33:47.610Z,3.57
2023-12-09T01:37:52.522Z,3.56
2023-12-09T01:41:57.735Z,3.57
2023-12-09T01:46:09.089Z,3.60
2023-12-09T01:50:15.914Z,3.62
2023-12-09T01:54:20.950Z,3.62
2023-12-09T01:58:26.028Z,3.64
2023-12-09T02:02:31.141Z,3.64
2023-12-09T02:06:38.250Z,3.64
2023-12-09T02:10:43.644Z,3.62
2023-12-09T02:14:58.160Z,3.59
2023-12-09T02:19:07.423Z,3.56
2023-12-09T02:23:14.656Z,3.56
2023-12-09T02:27:24.696Z,3.54
2023-12-09T02:31:32.973Z,3.54
2023-12-09T02:35:42.705Z,3.57
2023-12-09T02:39:49.579Z,3.56
2023-12-09T02:43:54.144Z,3.57
2023-12-09T02:47:58.612Z,3.57
2023-12-09T02:52:03.275Z,3.57
2023-12-09T02:56:10.878Z,3.59
2023-12-09T03:00:15.791Z,3.60
2023-12-09T03:04:20.809Z,3.58
2023-12-09T03:08:25.698Z,3.58
2023-12-09T03:12:32.451Z,3.60
2023-12-09T03:16:40.157Z,3.64
2023-12-09T03:20:44.835Z,3.65
2023-12-09T03:24:52.024Z,3.68
2023-12-09T03:28:58.380Z,3.69
2023-12-09T03:33:03.299Z,3.64
2023-12-09T03:37:08.079Z,3.67
2023-12-09T03:41:12.610Z,3.65
2023-12-09T03:45:18.894Z,3.68
2023-12-09T03:49:24.190Z,3.68
2023-12-09T03:53:29.265Z,3.70
2023-12-09T03:57:32.845Z,3.69
2023-12-09T04:01:37.546Z,3.70
2023-12-09T04:05:40.929Z,3.67
2023-12-09T04:09:47.392Z,3.64
2023-12-09T04:13:50.747Z,3.60
2023-12-09T04:17:55.476Z,3.60
2023-12-09T04:21:58.848Z,3.56
2023-12-09T04:26:02.004Z,3.53
2023-12-09T04:30:06.119Z,3.52
2023-12-09T04:34:10.972Z,3.51
2023-12-09T04:38:14.118Z,3.52
2023-12-09T04:42:17.363Z,3.53
2023-12-09T04:46:20.865Z,3.54
2023-12-09T04:50:25.670Z,3.56
2023-12-09T04:54:29.006Z,3.56
2023-12-09T04:58:32.127Z,3.57
2023-12-09T05:02:35.368Z,3.59
2023-12-09T05:06:39.966Z,3.61
2023-12-09T05:10:43.047Z,3.61
2023-12-09T05:14:46.244Z,3.65
2023-12-09T05:18:49.507Z,3.67
2023-12-09T05:22:54.239Z,3.69
2023-12-09T05:26:58.953Z,3.71
2023-12-09T05:31:02.404Z,3.73
2023-12-09T05:35:06.057Z,3.74
2023-12-09T05:39:10.893Z,3.76
2023-12-09T05:43:14.250Z,3.77
2023-12-09T05:47:17.516Z,3.78
2023-12-09T05:51:20.772Z,3.78
2023-12-09T05:55:25.790Z,3.80
2023-12-09T05:59:29.167Z,3.79
2023-12-09T06:03:32.565Z,3.80
2023-12-09T06:07:36.032Z,3.79
2023-12-09T06:11:40.605Z,3.85
2023-12-09T06:15:44.047Z,3.86
2023-12-09T06:19:47.176Z,3.88
2023-12-09T06:23:50.552Z,3.86
2023-12-09T06:27:55.009Z,3.88
2023-12-09T06:31:58.416Z,3.88
2023-12-09T06:36:01.892Z,3.88
2023-12-09T06:40:05.727Z,3.87
2023-12-09T06:44:10.692Z,3.89
2023-12-09T06:48:13.920Z,3.89
2023-12-09T06:52:17.512Z,3.88
2023-12-09T06:56:21.158Z,3.89
2023-12-09T07:00:26.658Z,3.90
2023-12-09T07:04:29.922Z,3.90
2023-12-09T07:08:33.086Z,3.92
2023-12-09T07:12:36.289Z,3.93
2023-12-09T07:16:41.239Z,3.96
2023-12-09T07:20:45.014Z,3.98
2023-12-09T07:24:48.273Z,4.01
2023-12-09T07:28:51.443Z,4.04
2023-12-09T07:32:56.130Z,4.06
2023-12-09T07:36:59.393Z,4.10
2023-12-09T07:41:02.762Z,4.12
2023-12-09T07:45:07.176Z,4.16
2023-12-09T07:49:11.739Z,4.18
2023-12-09T07:53:14.923Z,4.21
2023-12-09T07:57:18.609Z,4.25
2023-12-09T08:01:21.860Z,4.30
2023-12-09T08:05:27.708Z,4.35
2023-12-09T08:09:31.347Z,4.39
2023-12-09T08:13:35.192Z,4.39
2023-12-09T08:17:38.411Z,4.39
2023-12-09T08:21:43.147Z,4.39
2023-12-09T08:25:46.468Z,4.38
2023-12-09T08:29:49.699Z,4.40
2023-12-09T08:33:52.857Z,4.41
2023-12-09T08:37:57.412Z,4.47
2023-12-09T08:42:00.488Z,4.53
2023-12-09T08:46:03.596Z,4.64
2023-12-09T08:50:21.307Z,4.74
2023-12-09T08:54:28.456Z,4.89
2023-12-09T08:58:31.563Z,4.99
2023-12-09T09:02:35.453Z,5.11
2023-12-09T09:06:39.425Z,5.20
2023-12-09T09:10:44.936Z,5.35
2023-12-09T09:14:49.120Z,5.47
2023-12-09T09:18:52.967Z,5.60
2023-12-09T09:22:56.875Z,5.73
2023-12-09T09:27:01.519Z,5.88
2023-12-09T09:31:05.507Z,5.98
2023-12-09T09:35:10.596Z,6.08
2023-12-09T09:39:14.318Z,6.21
2023-12-09T09:43:23.287Z,6.32
2023-12-09T09:47:27.013Z,6.39
2023-12-09T09:51:33.221Z,6.42
2023-12-09T09:55:37.459Z,6.43
2023-12-09T09:59:42.425Z,6.45
2023-12-09T10:03:45.864Z,6.48
2023-12-09T10:07:49.372Z,6.51
2023-12-09T10:11:52.550Z,6.56
2023-12-09T10:15:57.055Z,6.64
2023-12-09T10:20:00.875Z,6.68
2023-12-09T10:24:06.543Z,6.75
2023-12-09T10:28:11.989Z,6.81
2023-12-09T10:32:16.747Z,6.85
2023-12-09T10:36:20.202Z,6.86
2023-12-09T10:40:26.167Z,6.88
2023-12-09T10:44:30.582Z,6.91
2023-12-09T10:48:35.222Z,6.96
2023-12-09T10:52:39.949Z,6.97
2023-12-09T10:56:43.042Z,7.02
2023-12-09T11:00:48.055Z,7.05
2023-12-09T11:04:54.036Z,7.08
2023-12-09T11:08:57.624Z,7.06
2023-12-09T11:13:01.605Z,7.04
2023-12-09T11:17:06.373Z,6.98
2023-12-09T11:21:10.971Z,6.93
2023-12-09T11:25:25.563Z,6.88
2023-12-09T11:29:29.347Z,6.84
2023-12-09T11:33:34.414Z,6.88
2023-12-09T11:37:39.459Z,6.94
2023-12-09T11:41:43.795Z,7.02
2023-12-09T11:45:48.092Z,7.05
2023-12-09T11:49:52.056Z,7.04
2023-12-09T11:53:57.992Z,7.06
2023-12-09T11:58:01.235Z,7.05
2023-12-09T12:02:05.126Z,7.03
2023-12-09T12:06:12.877Z,7.02
2023-12-09T12:10:19.557Z,7.02
2023-12-09T12:14:23.113Z,7.08
2023-12-09T12:18:26.877Z,7.20
2023-12-09T12:22:30.411Z,7.38
2023-12-09T12:26:35.410Z,7.52
2023-12-09T12:30:41.143Z,7.65
2023-12-09T12:34:47.289Z,7.77
2023-12-09T12:38:53.559Z,7.82
2023-12-09T12:42:58.185Z,7.86
2023-12-09T12:47:01.711Z,7.86
2023-12-09T12:51:05.516Z,7.87
2023-12-09T12:55:10.488Z,7.88
2023-12-09T12:59:18.362Z,7.87
2023-12-09T13:03:22.183Z,7.80
2023-12-09T13:07:26.925Z,7.75
2023-12-09T13:11:33.054Z,7.66
2023-12-09T13:15:39.218Z,7.54
2023-12-09T13:19:43.933Z,7.52
2023-12-09T13:23:48.813Z,7.45
2023-12-09T13:27:53.784Z,7.37
2023-12-09T13:32:03.863Z,7.29
2023-12-09T13:36:11.450Z,7.20
2023-12-09T13:40:16.492Z,7.11
2023-12-09T13:44:21.129Z,7.04
2023-12-09T13:48:27.326Z,7.01
2023-12-09T13:52:33.979Z,6.97
2023-12-09T13:56:40.688Z,6.95
2023-12-09T14:00:46.060Z,6.76
2023-12-09T14:04:52.264Z,6.77
2023-12-09T14:08:56.786Z,6.61
2023-12-09T14:13:01.548Z,6.48
2023-12-09T14:17:07.018Z,6.34
2023-12-09T14:21:14.676Z,6.21
2023-12-09T14:25:19.750Z,6.03
2023-12-09T14:29:24.432Z,5.84
2023-12-09T14:33:29.364Z,5.64
2023-12-09T14:37:35.537Z,5.49
2023-12-09T14:41:42.067Z,5.34
2023-12-09T14:45:47.024Z,5.20
2023-12-09T14:49:51.879Z,5.02
2023-12-09T14:53:58.463Z,4.88
2023-12-09T14:58:02.692Z,4.71
2023-12-09T15:02:07.436Z,4.55
2023-12-09T15:06:13.094Z,4.40
2023-12-09T15:10:23.816Z,4.26
2023-12-09T15:14:28.301Z,4.11
2023-12-09T15:18:33.062Z,3.98
2023-12-09T15:22:37.849Z,3.87
2023-12-09T15:26:44.508Z,3.80
2023-12-09T15:30:50.416Z,3.77
2023-12-09T15:34:55.675Z,3.79
2023-12-09T15:39:00.828Z,3.84
2023-12-09T15:43:10.078Z,3.90
2023-12-09T15:47:14.967Z,3.94
2023-12-09T15:51:19.652Z,3.99
2023-12-09T15:55:24.383Z,4.02
2023-12-09T15:59:33.559Z,4.06
2023-12-09T16:03:38.648Z,4.05
2023-12-09T16:07:44.724Z,4.06
2023-12-09T16:11:50.045Z,4.03
2023-12-09T16:15:57.825Z,4.08
2023-12-09T16:20:03.816Z,4.08
2023-12-09T16:24:11.569Z,4.13
2023-12-09T16:28:16.696Z,4.16
2023-12-09T16:32:23.592Z,4.23
2023-12-09T16:36:28.535Z,4.26
2023-12-09T16:40:35.307Z,4.29
2023-12-09T16:44:40.537Z,4.34
2023-12-09T16:48:47.196Z,4.36
2023-12-09T16:52:51.845Z,4.36
2023-12-09T16:56:56.625Z,4.40
2023-12-09T17:01:01.919Z,4.38
2023-12-09T17:05:11.943Z,4.40
2023-12-09T17:09:17.429Z,4.40
2023-12-09T17:13:22.043Z,4.40
2023-12-09T17:17:26.978Z,4.39
2023-12-09T17:21:33.382Z,4.38
2023-12-09T17:25:38.974Z,4.38
2023-12-09T17:29:45.876Z,4.38
2023-12-09T17:33:50.980Z,4.41
2023-12-09T17:37:57.045Z,4.42
2023-12-09T17:42:01.909Z,4.40
2023-12-09T17:46:09.416Z,4.44
2023-12-09T17:50:13.860Z,4.44
2023-12-09T17:54:22.113Z,4.48
2023-12-09T17:58:25.538Z,4.49
2023-12-09T18:02:28.916Z,4.48
2023-12-09T18:06:32.543Z,4.52
2023-12-09T18:10:37.439Z,4.53
2023-12-09T18:14:40.998Z,4.54
2023-12-09T18:18:44.275Z,4.56
2023-12-09T18:22:47.526Z,4.57
2023-12-09T18:26:52.149Z,4.57
2023-12-09T18:30:56.159Z,4.59
2023-12-09T18:34:59.272Z,4.58
2023-12-09T18:39:02.692Z,4.56
2023-12-09T18:43:07.276Z,4.56
2023-12-09T18:47:10.421Z,4.53
2023-12-09T18:51:13.983Z,4.56
2023-12-09T18:55:17.300Z,4.56
2023-12-09T18:59:22.138Z,4.55
2023-12-09T19:03:26.509Z,4.52
2023-12-09T19:07:29.828Z,4.53
2023-12-09T19:11:33.217Z,4.53
2023-12-09T19:15:39.034Z,4.53
2023-12-09T19:19:43.632Z,4.52
2023-12-09T19:23:48.274Z,4.53
2023-12-09T19:27:51.497Z,4.51
2023-12-09T19:31:56.941Z,4.54
2023-12-09T19:36:00.300Z,4.53
2023-12-09T19:40:03.973Z,4.50
2023-12-09T19:44:07.666Z,4.47
2023-12-09T19:48:13.125Z,4.48
2023-12-09T19:52:16.423Z,4.45
2023-12-09T19:56:19.864Z,4.41
2023-12-09T20:00:24.322Z,4.40
2023-12-09T20:04:31.802Z,4.41
2023-12-09T20:08:34.992Z,4.35
2023-12-09T20:12:38.431Z,4.36
2023-12-09T20:16:42.105Z,4.35
2023-12-09T20:20:47.081Z,4.35
2023-12-09T20:24:50.247Z,4.34
2023-12-09T20:28:54.725Z,4.35
2023-12-09T20:32:57.982Z,4.36
2023-12-09T20:37:04.175Z,4.38
2023-12-09T20:41:07.815Z,4.32
2023-12-09T20:45:12.493Z,4.37
2023-12-09T20:49:18.325Z,4.37
2023-12-09T20:53:23.059Z,4.39
2023-12-09T20:57:26.194Z,4.37
2023-12-09T21:01:29.985Z,4.36
2023-12-09T21:05:36.260Z,4.37
2023-12-09T21:09:41.299Z,4.37
2023-12-09T21:13:44.597Z,4.37
2023-12-09T21:17:47.937Z,4.38
2023-12-09T21:21:51.285Z,4.35
2023-12-09T21:25:56.624Z,4.34
2023-12-09T21:30:01.164Z,4.34
2023-12-09T21:34:04.775Z,4.34
2023-12-09T21:38:08.273Z,4.33
2023-12-09T21:42:13.144Z,4.34
2023-12-09T21:46:21.008Z,4.37
2023-12-09T21:50:26.461Z,4.37
2023-12-09T21:54:30.620Z,4.38
2023-12-09T21:58:37.858Z,4.39
2023-12-09T22:02:42.062Z,4.38
2023-12-09T22:06:47.098Z,4.37
2023-12-09T22:10:51.224Z,4.36
2023-12-09T22:14:56.905Z,4.38
2023-12-09T22:19:00.836Z,4.37
2023-12-09T22:23:04.956Z,4.37
2023-12-09T22:27:09.150Z,4.37
2023-12-09T22:31:15.262Z,4.35
2023-12-09T22:35:19.132Z,4.37
2023-12-09T22:39:23.066Z,4.39
2023-12-09T22:43:26.288Z,4.41
2023-12-09T22:47:30.962Z,4.37
2023-12-09T22:51:34.274Z,4.42
2023-12-09T22:55:40.354Z,4.40
2023-12-09T22:59:45.489Z,4.42
2023-12-09T23:03:50.483Z,4.44
2023-12-09T23:07:53.791Z,4.41
2023-12-09T23:11:57.500Z,4.44
2023-12-09T23:16:00.986Z,4.44
2023-12-09T23:20:07.081Z,4.43
2023-12-09T23:24:10.295Z,4.48
2023-12-09T23:28:13.910Z,4.49
2023-12-09T23:32:17.186Z,4.52
2023-12-09T23:36:22.081Z,4.55
2023-12-09T23:40:25.244Z,4.54
2023-12-09T23:44:28.449Z,4.52
2023-12-09T23:48:31.788Z,4.51
2023-12-09T23:52:36.710Z,4.50
2023-12-09T23:56:39.840Z,4.47
